Vesuvius, Virginia
Current Conditions -  °F | °C
As of 4:35 AM on Friday 24 Oct 2014 (Local Time) from KW13 Reporting Station
Clear Clear  
Wind Chill: 40°   Ceiling: Unl
Heat Index: 44°   Visibility: 10mi
Dew Point: 38°   Wind: 7mph
Humidity: 80%   Direction: 260°W
Pressure: 29.99"   Gusts: NA
Location:  37.91°N, 79.2°W
Report Text: KW13 240835Z AUTO 26006KT 10SM CLR 07/04 A2999 RMK AO1 T00670035
Loading
Personal Weather Stations






























Interactive Weather Map
Tropical Storm Tracking
New forecast layout! Learn more

10-Day Weather Forecast

Advertisements
Track Severe Weather on mobile